Time;durP1;ratioP1;P1;durP2;ratioP2;P2;SDS_P1;SDS_P2;PMS_P1;PMS_P2;Temp;Humidity;BMP_temperature;BMP_pressure;BME280_temperature;BME280_humidity;BME280_pressure;Samples;Min_cycle;Max_cycle;Signal;HPM_P1;HPM_P2
2022/08/21 00:00:31;;;;;;;5.17;2.77;;;20.00;1.00;;;;;;5056140;28;20181;-91
2022/08/21 00:03:03;;;;;;;5.80;2.80;;;19.90;1.00;;;;;;5056689;28;20645;-91
2022/08/21 00:05:32;;;;;;;7.93;2.57;;;19.80;1.00;;;;;;5057192;28;20187;-91
2022/08/21 00:08:02;;;;;;;8.13;2.60;;;19.70;1.00;;;;;;5039365;28;20183;-90
2022/08/21 00:10:29;;;;;;;6.90;2.90;;;19.60;1.00;;;;;;5055541;28;20188;-90
2022/08/21 00:12:55;;;;;;;6.70;2.60;;;19.50;1.00;;;;;;5055358;28;20234;-90
2022/08/21 00:15:27;;;;;;;9.57;2.97;;;19.30;1.00;;;;;;5054988;28;20188;-90
2022/08/21 00:17:58;;;;;;;6.40;2.53;;;19.20;1.00;;;;;;5056131;28;20270;-89
2022/08/21 00:20:29;;;;;;;6.83;2.60;;;19.10;1.00;;;;;;5057227;28;20214;-90
2022/08/21 00:22:57;;;;;;;6.40;2.53;;;19.00;1.00;;;;;;5058314;28;20187;-92
2022/08/21 00:25:28;;;;;;;9.10;2.70;;;19.00;1.00;;;;;;5056385;28;20667;-91
2022/08/21 00:28:06;;;;;;;8.13;2.80;;;19.00;1.00;;;;;;5056911;28;20258;-93
2022/08/21 00:30:35;;;;;;;9.33;2.50;;;19.00;1.00;;;;;;5057022;28;20290;-92
2022/08/21 00:33:02;;;;;;;6.90;2.50;;;19.00;1.00;;;;;;5057679;28;20279;-92
2022/08/21 00:35:32;;;;;;;7.70;2.50;;;19.00;1.00;;;;;;5056997;28;20740;-92
2022/08/21 00:37:59;;;;;;;9.33;2.77;;;18.90;1.00;;;;;;5056840;28;20245;-92
2022/08/21 00:40:37;;;;;;;7.00;2.60;;;19.00;1.00;;;;;;5056739;28;20712;-91
2022/08/21 00:43:07;;;;;;;7.33;2.47;;;18.90;1.00;;;;;;5057499;28;20592;-92
2022/08/21 00:45:37;;;;;;;6.83;2.60;;;18.80;1.00;;;;;;5057051;28;20179;-92
2022/08/21 00:48:06;;;;;;;7.13;2.33;;;18.70;1.00;;;;;;5058399;28;20180;-92
2022/08/21 00:50:38;;;;;;;7.80;2.43;;;18.70;1.00;;;;;;5056377;28;20546;-92
2022/08/21 00:53:06;;;;;;;13.97;3.20;;;18.80;1.00;;;;;;5057240;28;20219;-92
2022/08/21 00:55:34;;;;;;;6.57;2.50;;;18.70;1.00;;;;;;5056939;28;20181;-92
2022/08/21 00:58:12;;;;;;;7.73;2.40;;;18.60;1.00;;;;;;5058455;28;20234;-92
2022/08/21 01:00:42;;;;;;;5.73;2.57;;;18.60;1.00;;;;;;5060852;28;20246;-91
2022/08/21 01:03:16;;;;;;;7.03;3.13;;;18.50;1.00;;;;;;5057751;28;20186;-92
2022/08/21 01:05:43;;;;;;;6.87;2.30;;;18.40;1.00;;;;;;5058973;28;20883;-91
2022/08/21 01:08:18;;;;;;;8.80;2.43;;;18.30;1.00;;;;;;5070472;28;20185;-92
2022/08/21 01:10:47;;;;;;;9.03;2.70;;;18.30;1.00;;;;;;5065669;28;20235;-92
2022/08/21 01:13:17;;;;;;;9.40;2.80;;;18.30;1.00;;;;;;5062369;28;20211;-90
2022/08/21 01:15:48;;;;;;;10.43;3.00;;;18.30;1.00;;;;;;5058110;28;20270;-92
2022/08/21 01:18:15;;;;;;;5.77;2.30;;;18.50;1.00;;;;;;5069432;28;20239;-93
2022/08/21 01:20:45;;;;;;;8.87;2.30;;;18.50;1.00;;;;;;5078176;28;20178;-90
2022/08/21 01:23:12;;;;;;;11.10;3.43;;;18.60;1.00;;;;;;5078330;28;20195;-90
2022/08/21 01:25:38;;;;;;;6.47;2.63;;;18.50;1.00;;;;;;5077936;28;20191;-91
2022/08/21 01:28:13;;;;;;;8.57;2.57;;;18.40;1.00;;;;;;5065057;28;20235;-91
2022/08/21 01:30:43;;;;;;;7.33;2.70;;;18.30;1.00;;;;;;5057830;28;20209;-91
2022/08/21 01:33:46;;;;;;;6.40;2.30;;;18.30;1.00;;;;;;5056802;28;20298;-91
2022/08/21 01:36:15;;;;;;;7.73;2.63;;;18.30;1.00;;;;;;5055016;28;20269;-92
2022/08/21 01:38:47;;;;;;;7.33;2.67;;;18.20;1.00;;;;;;5056032;28;20292;-91
2022/08/21 01:41:15;;;;;;;6.43;2.20;;;18.20;1.00;;;;;;5055171;28;20201;-93
2022/08/21 01:43:42;;;;;;;10.10;2.70;;;18.10;1.00;;;;;;5054840;28;20180;-92
2022/08/21 01:46:11;;;;;;;5.67;2.53;;;18.10;1.00;;;;;;5073791;28;20172;-90
2022/08/21 01:48:37;;;;;;;10.03;2.90;;;18.10;1.00;;;;;;5074326;28;20186;-91
2022/08/21 01:51:05;;;;;;;8.37;2.67;;;18.10;1.00;;;;;;5058967;28;20186;-91
2022/08/21 01:53:38;;;;;;;9.23;2.70;;;18.20;1.00;;;;;;5056753;28;20213;-91
2022/08/21 01:56:10;;;;;;;5.17;2.33;;;18.00;1.00;;;;;;5062091;28;20188;-91
2022/08/21 01:58:37;;;;;;;6.17;2.33;;;17.90;1.00;;;;;;5065591;28;20243;-91
2022/08/21 02:01:04;;;;;;;7.13;2.93;;;17.90;1.00;;;;;;5066612;28;20180;-90
2022/08/21 02:03:33;;;;;;;5.53;2.50;;;17.90;1.00;;;;;;5076733;28;20264;-91
2022/08/21 02:06:03;;;;;;;7.30;2.43;;;17.80;1.00;;;;;;5078237;28;20162;-92
2022/08/21 02:08:30;;;;;;;6.90;2.30;;;17.60;1.00;;;;;;5073872;28;20192;-90
2022/08/21 02:10:56;;;;;;;6.50;2.40;;;17.50;1.00;;;;;;5076078;28;20246;-91
2022/08/21 02:13:26;;;;;;;7.23;2.83;;;17.60;1.00;;;;;;5078156;28;20230;-92
2022/08/21 02:15:58;;;;;;;5.93;2.33;;;17.50;1.00;;;;;;5078365;28;20195;-90
2022/08/21 02:18:27;;;;;;;5.93;2.23;;;17.60;1.00;;;;;;5074973;28;20161;-93
2022/08/21 02:20:57;;;;;;;7.83;2.67;;;17.60;1.00;;;;;;5078665;28;20181;-90
2022/08/21 02:23:24;;;;;;;7.23;2.47;;;17.60;1.00;;;;;;5078174;28;20220;-90
2022/08/21 02:25:50;;;;;;;5.70;2.33;;;17.60;1.00;;;;;;5077052;28;20166;-90
2022/08/21 02:28:19;;;;;;;6.50;2.57;;;17.60;1.00;;;;;;5077830;28;20197;-92
2022/08/21 02:31:24;;;;;;;5.53;2.50;;;17.60;1.00;;;;;;5077932;28;20174;-90
2022/08/21 02:34:16;;;;;;;7.83;2.20;;;17.60;1.00;;;;;;5076686;28;20203;-93
2022/08/21 02:36:44;;;;;;;8.90;2.87;;;17.50;1.00;;;;;;5050697;28;20256;-91
2022/08/21 02:39:10;;;;;;;8.77;2.70;;;17.50;1.00;;;;;;5060512;28;20193;-91
2022/08/21 02:41:38;;;;;;;7.57;2.67;;;17.50;1.00;;;;;;5061505;28;20663;-94
2022/08/21 02:44:07;;;;;;;6.90;2.60;;;17.70;1.00;;;;;;5058748;28;20180;-92
2022/08/21 02:46:34;;;;;;;6.33;3.20;;;17.70;1.00;;;;;;5057362;28;20663;-91
2022/08/21 02:49:03;;;;;;;8.87;3.43;;;17.80;1.00;;;;;;5054194;28;20177;-92
2022/08/21 02:51:30;;;;;;;8.77;3.10;;;17.60;1.00;;;;;;5053567;28;20661;-91
2022/08/21 02:53:59;;;;;;;8.37;2.93;;;17.50;1.00;;;;;;5053450;28;20209;-91
2022/08/21 02:56:28;;;;;;;9.23;3.37;;;17.40;1.00;;;;;;5053751;28;20288;-91
2022/08/21 02:58:57;;;;;;;7.50;3.17;;;17.30;1.00;;;;;;5055295;28;20580;-92
2022/08/21 03:01:26;;;;;;;8.10;3.27;;;17.40;1.00;;;;;;5055087;28;20591;-94
2022/08/21 03:03:53;;;;;;;9.47;3.30;;;17.40;1.00;;;;;;5053869;28;20220;-91
2022/08/21 03:06:23;;;;;;;9.37;3.40;;;17.40;1.00;;;;;;5053848;28;20520;-93
2022/08/21 03:08:50;;;;;;;8.07;2.73;;;17.50;1.00;;;;;;5053796;28;20183;-90
2022/08/21 03:11:17;;;;;;;7.33;2.93;;;17.60;1.00;;;;;;5053514;28;20729;-92
2022/08/21 03:13:46;;;;;;;6.47;2.60;;;17.50;1.00;;;;;;5055537;28;20229;-92
2022/08/21 03:16:12;;;;;;;8.17;2.73;;;17.50;1.00;;;;;;5057458;28;20527;-92
2022/08/21 03:18:41;;;;;;;9.47;2.90;;;17.40;1.00;;;;;;5058736;28;20180;-91
2022/08/21 03:21:10;;;;;;;6.73;2.60;;;17.40;1.00;;;;;;5057561;28;20222;-91
2022/08/21 03:23:39;;;;;;;7.87;3.10;;;17.40;1.00;;;;;;5057791;28;20217;-91
2022/08/21 03:26:10;;;;;;;8.40;2.60;;;17.40;1.00;;;;;;5057548;28;20223;-91
2022/08/21 03:28:40;;;;;;;6.77;2.77;;;17.30;1.00;;;;;;5057441;28;20578;-91
2022/08/21 03:31:08;;;;;;;8.37;3.20;;;17.40;1.00;;;;;;5058269;28;20267;-90
2022/08/21 03:33:34;;;;;;;6.63;2.67;;;17.40;1.00;;;;;;5060825;28;20256;-91
2022/08/21 03:36:04;;;;;;;9.37;3.37;;;17.40;1.00;;;;;;5043095;28;20174;-90
2022/08/21 03:38:32;;;;;;;7.03;2.90;;;17.30;1.00;;;;;;5058161;28;20230;-91
2022/08/21 03:41:01;;;;;;;6.97;2.60;;;17.30;1.00;;;;;;5058772;28;20201;-91
2022/08/21 03:43:28;;;;;;;5.37;2.33;;;17.20;1.00;;;;;;5056694;28;20242;-90
2022/08/21 03:45:57;;;;;;;5.13;2.37;;;17.10;1.00;;;;;;5055884;28;20204;-90
2022/08/21 03:48:23;;;;;;;8.87;2.33;;;17.20;1.00;;;;;;5055687;28;20279;-90
2022/08/21 03:51:02;;;;;;;7.43;2.87;;;17.20;1.00;;;;;;5038722;28;20196;-90
2022/08/21 03:53:30;;;;;;;5.83;2.30;;;17.10;1.00;;;;;;5055580;28;20212;-91
2022/08/21 03:55:58;;;;;;;7.53;2.80;;;17.00;1.00;;;;;;5055410;28;20241;-90
2022/08/21 03:58:32;;;;;;;4.63;2.07;;;17.00;1.00;;;;;;5055767;28;20181;-90
2022/08/21 04:01:00;;;;;;;8.00;2.53;;;16.90;1.00;;;;;;5055568;28;20188;-94
2022/08/21 04:03:37;;;;;;;6.77;2.60;;;16.90;1.00;;;;;;5055597;28;20253;-91
2022/08/21 04:06:03;;;;;;;6.70;3.30;;;16.80;1.00;;;;;;5038836;28;20211;-92
2022/08/21 04:08:30;;;;;;;9.97;3.33;;;16.70;1.00;;;;;;5055983;28;20296;-93
2022/08/21 04:10:58;;;;;;;8.37;3.27;;;16.70;2.40;;;;;;5038722;28;20246;-91
2022/08/21 04:13:25;;;;;;;8.63;3.10;;;16.70;2.60;;;;;;5055176;28;20251;-91
2022/08/21 04:15:52;;;;;;;7.37;3.50;;;16.80;3.00;;;;;;5055265;28;20264;-92
2022/08/21 04:18:18;;;;;;;8.27;2.93;;;16.80;1.00;;;;;;5055230;28;20629;-91
2022/08/21 04:20:52;;;;;;;9.17;3.53;;;16.90;1.00;;;;;;5054803;28;20177;-91
2022/08/21 04:23:19;;;;;;;5.83;2.93;;;17.10;1.00;;;;;;5055017;28;20181;-91
2022/08/21 04:25:46;;;;;;;8.37;3.17;;;17.10;1.00;;;;;;5054203;28;20191;-91
2022/08/21 04:28:14;;;;;;;7.60;2.80;;;17.20;1.00;;;;;;5055016;28;20204;-91
2022/08/21 04:30:43;;;;;;;4.70;2.60;;;17.30;1.00;;;;;;5055339;28;20783;-92
2022/08/21 04:33:11;;;;;;;8.70;3.00;;;17.20;1.00;;;;;;5065749;28;20196;-91
2022/08/21 04:35:47;;;;;;;5.73;2.70;;;17.10;1.00;;;;;;5058851;28;20238;-91
2022/08/21 04:38:16;;;;;;;6.50;2.93;;;16.80;1.00;;;;;;5061508;28;20189;-90
2022/08/21 04:40:46;;;;;;;9.37;2.90;;;16.70;1.00;;;;;;5059430;28;20605;-93
2022/08/21 04:43:25;;;;;;;8.80;3.07;;;16.80;1.00;;;;;;5055145;28;20237;-92
2022/08/21 04:46:12;;;;;;;6.23;2.87;;;16.70;1.70;;;;;;5054698;28;20172;-91
2022/08/21 04:48:42;;;;;;;6.17;2.57;;;16.70;2.10;;;;;;5054771;28;20281;-91
2022/08/21 04:51:18;;;;;;;7.27;2.90;;;16.70;1.10;;;;;;5059945;28;20177;-90
2022/08/21 04:53:52;;;;;;;6.27;2.47;;;16.90;1.00;;;;;;5077149;28;20201;-91
2022/08/21 04:56:30;;;;;;;7.40;3.07;;;16.70;1.00;;;;;;5064488;28;20238;-90
2022/08/21 04:59:03;;;;;;;6.07;2.83;;;16.60;8.30;;;;;;5057110;28;20183;-90
2022/08/21 05:01:34;;;;;;;9.03;2.70;;;16.60;6.90;;;;;;5054986;28;20224;-92
2022/08/21 05:04:12;;;;;;;8.43;2.60;;;16.70;2.40;;;;;;5038053;28;20186;-92
2022/08/21 05:06:43;;;;;;;7.83;2.97;;;16.60;2.80;;;;;;5053947;28;20180;-92
2022/08/21 05:09:09;;;;;;;11.50;3.40;;;16.50;8.70;;;;;;5054132;28;20705;-91
2022/08/21 05:11:37;;;;;;;6.27;2.63;;;16.50;12.10;;;;;;5054018;28;20530;-90
2022/08/21 05:14:03;;;;;;;8.07;2.83;;;16.60;5.70;;;;;;5054537;28;20235;-92
2022/08/21 05:16:33;;;;;;;7.87;2.90;;;16.80;1.00;;;;;;5054164;28;20275;-94
2022/08/21 05:18:59;;;;;;;7.77;3.10;;;16.90;1.00;;;;;;5054228;28;20186;-92
2022/08/21 05:21:25;;;;;;;8.37;2.90;;;17.00;1.00;;;;;;5054421;28;20192;-93
2022/08/21 05:23:54;;;;;;;7.47;2.90;;;17.20;1.00;;;;;;5053789;28;20191;-91
2022/08/21 05:26:20;;;;;;;8.43;2.70;;;17.10;1.00;;;;;;5053408;28;20272;-91
2022/08/21 05:28:49;;;;;;;5.70;2.90;;;17.10;1.00;;;;;;5053990;28;20220;-91
2022/08/21 05:31:15;;;;;;;5.53;2.60;;;17.20;1.00;;;;;;5053735;28;20622;-91
2022/08/21 05:33:41;;;;;;;9.57;2.50;;;17.10;1.00;;;;;;5054493;28;20260;-90
2022/08/21 05:36:07;;;;;;;9.87;3.13;;;17.20;1.00;;;;;;5052753;28;20188;-91
2022/08/21 05:38:37;;;;;;;6.53;2.77;;;17.20;1.00;;;;;;5054809;28;20258;-91
2022/08/21 05:41:03;;;;;;;8.00;2.47;;;17.30;1.00;;;;;;5036971;28;20259;-91
2022/08/21 05:43:29;;;;;;;6.33;2.70;;;17.10;1.00;;;;;;5053817;28;20184;-91
2022/08/21 05:45:58;;;;;;;7.10;2.97;;;17.20;1.00;;;;;;5054147;28;20205;-90
2022/08/21 05:48:24;;;;;;;5.20;2.50;;;17.20;1.00;;;;;;5069838;28;20191;-89
2022/08/21 05:50:52;;;;;;;7.60;3.20;;;17.30;1.00;;;;;;5076228;28;20191;-90
2022/08/21 05:53:22;;;;;;;8.07;2.70;;;17.30;1.00;;;;;;5060814;28;20239;-90
2022/08/21 05:55:48;;;;;;;6.50;2.83;;;17.30;1.00;;;;;;5056753;28;20174;-90
2022/08/21 05:58:20;;;;;;;7.23;3.27;;;17.20;1.00;;;;;;5056273;28;20185;-91
2022/08/21 06:00:50;;;;;;;4.80;2.83;;;17.10;1.00;;;;;;5056541;28;20656;-91
2022/08/21 06:03:24;;;;;;;5.87;2.67;;;17.10;1.00;;;;;;5054945;28;20351;-91
2022/08/21 06:05:50;;;;;;;10.03;3.20;;;17.10;1.00;;;;;;5053642;28;20177;-91
2022/08/21 06:08:17;;;;;;;6.10;2.90;;;17.20;1.00;;;;;;5054161;28;20180;-91
2022/08/21 06:10:57;;;;;;;7.00;3.40;;;17.30;1.00;;;;;;5058866;28;20179;-90
2022/08/21 06:13:23;;;;;;;7.87;3.17;;;17.30;1.00;;;;;;5057615;28;20282;-90
2022/08/21 06:16:01;;;;;;;10.37;3.27;;;17.30;1.00;;;;;;5054061;28;20220;-90
2022/08/21 06:18:27;;;;;;;9.17;3.20;;;17.30;1.00;;;;;;5054755;28;20272;-91
2022/08/21 06:20:55;;;;;;;9.33;3.10;;;17.30;1.00;;;;;;5053669;28;20208;-91
2022/08/21 06:23:21;;;;;;;9.10;3.00;;;17.30;1.00;;;;;;5037779;28;20245;-91
2022/08/21 06:25:47;;;;;;;7.80;2.80;;;17.40;1.00;;;;;;5053431;28;20181;-91
2022/08/21 06:28:14;;;;;;;9.40;3.10;;;17.40;1.00;;;;;;5053380;28;20682;-89
2022/08/21 06:30:41;;;;;;;7.70;3.20;;;17.60;1.00;;;;;;5052784;28;20183;-90
2022/08/21 06:33:07;;;;;;;7.80;3.27;;;17.70;1.00;;;;;;5052973;28;20236;-91
2022/08/21 06:35:33;;;;;;;7.83;2.50;;;17.80;1.00;;;;;;5053042;28;20181;-91
2022/08/21 06:37:59;;;;;;;7.43;3.03;;;17.80;1.00;;;;;;5053410;28;20182;-89
2022/08/21 06:40:27;;;;;;;9.17;3.03;;;17.90;1.00;;;;;;5057119;28;20645;-89
2022/08/21 06:42:53;;;;;;;5.43;2.10;;;18.00;1.00;;;;;;5053932;28;20266;-93
2022/08/21 06:45:20;;;;;;;6.23;2.60;;;18.00;1.00;;;;;;5054703;28;20180;-91
2022/08/21 06:47:49;;;;;;;7.73;2.87;;;18.20;1.00;;;;;;5055596;28;20183;-90
2022/08/21 06:50:15;;;;;;;7.03;2.40;;;18.20;1.00;;;;;;5059739;28;20190;-87
2022/08/21 06:52:41;;;;;;;5.53;2.20;;;18.40;1.00;;;;;;5059802;28;20288;-90
2022/08/21 06:55:09;;;;;;;7.60;2.53;;;18.80;1.00;;;;;;5043752;28;20212;-87
2022/08/21 06:57:35;;;;;;;7.13;2.50;;;19.20;1.00;;;;;;5059651;28;20186;-90
2022/08/21 07:00:05;;;;;;;5.00;2.00;;;19.50;1.00;;;;;;5058108;28;20518;-89
2022/08/21 07:02:32;;;;;;;6.87;2.53;;;19.80;1.00;;;;;;5059996;28;20183;-92
2022/08/21 07:04:59;;;;;;;7.90;2.20;;;19.90;1.00;;;;;;5060489;28;20220;-88
2022/08/21 07:07:30;;;;;;;7.90;2.70;;;20.10;1.00;;;;;;5074670;28;20222;-82
2022/08/21 07:09:55;;;;;;;6.97;2.47;;;20.20;1.00;;;;;;5078246;28;20179;-85
2022/08/21 07:12:21;;;;;;;7.30;2.20;;;20.40;1.00;;;;;;5070122;28;20180;-81
2022/08/21 07:14:48;;;;;;;7.43;2.50;;;20.50;1.00;;;;;;5070617;28;20153;-86
2022/08/21 07:17:14;;;;;;;5.87;2.17;;;20.70;1.00;;;;;;5069657;28;20201;-82
2022/08/21 07:19:41;;;;;;;7.67;2.43;;;20.80;1.00;;;;;;5060407;28;20691;-81
2022/08/21 07:22:07;;;;;;;5.20;2.17;;;20.90;1.00;;;;;;5060740;28;20197;-82
2022/08/21 07:24:33;;;;;;;9.77;2.20;;;21.00;1.00;;;;;;5061243;28;20626;-80
2022/08/21 07:26:58;;;;;;;9.13;2.30;;;21.00;1.00;;;;;;5056443;28;20212;-81
2022/08/21 07:29:24;;;;;;;8.07;1.90;;;21.00;1.00;;;;;;5056366;28;20181;-82
2022/08/21 07:31:50;;;;;;;5.83;2.37;;;21.10;1.00;;;;;;5055974;28;20177;-83
2022/08/21 07:34:16;;;;;;;6.27;2.23;;;21.00;1.00;;;;;;5055991;28;20711;-82
2022/08/21 07:36:42;;;;;;;7.13;2.40;;;21.10;1.00;;;;;;5055956;28;20177;-81
2022/08/21 07:39:08;;;;;;;5.37;1.80;;;21.40;1.00;;;;;;5024747;28;20268;-83
2022/08/21 07:41:35;;;;;;;6.60;2.50;;;21.50;1.00;;;;;;5033930;28;20744;-82
2022/08/21 07:44:21;;;;;;;5.00;2.27;;;21.40;1.00;;;;;;5052282;28;20212;-81
2022/08/21 07:46:47;;;;;;;9.23;2.80;;;21.00;1.00;;;;;;5050537;28;20267;-80
2022/08/21 07:49:12;;;;;;;7.70;2.30;;;21.00;1.00;;;;;;5035278;28;20703;-85
2022/08/21 07:51:38;;;;;;;7.93;2.50;;;21.10;1.00;;;;;;5054149;28;20259;-85
2022/08/21 07:54:04;;;;;;;6.53;2.40;;;20.90;1.00;;;;;;5053901;28;20704;-84
2022/08/21 07:56:31;;;;;;;7.43;2.53;;;21.00;1.00;;;;;;5052497;28;20184;-86
2022/08/21 07:58:57;;;;;;;8.87;2.33;;;21.00;1.00;;;;;;5052115;28;20247;-86
2022/08/21 08:01:24;;;;;;;7.23;2.70;;;21.00;1.00;;;;;;5052577;28;20182;-83
2022/08/21 08:03:50;;;;;;;6.53;2.20;;;21.10;1.00;;;;;;5034335;28;20218;-82
2022/08/21 08:06:18;;;;;;;7.00;2.00;;;21.10;1.00;;;;;;5052570;28;20563;-81
2022/08/21 08:08:44;;;;;;;7.47;2.10;;;21.00;1.00;;;;;;5050241;28;20242;-83
2022/08/21 08:11:14;;;;;;;7.67;2.40;;;20.80;1.00;;;;;;5051490;28;20188;-82
2022/08/21 08:13:43;;;;;;;7.83;2.00;;;20.90;1.00;;;;;;5051839;28;20731;-84
2022/08/21 08:16:10;;;;;;;8.40;2.43;;;21.00;1.00;;;;;;5033335;28;20189;-85
2022/08/21 08:18:36;;;;;;;6.07;2.07;;;20.70;1.00;;;;;;5034624;28;20195;-86
2022/08/21 08:21:02;;;;;;;6.57;2.27;;;20.40;1.00;;;;;;5050023;28;20233;-84
2022/08/21 08:23:30;;;;;;;7.50;2.33;;;20.30;1.00;;;;;;5053096;28;20655;-84
2022/08/21 08:25:56;;;;;;;9.60;2.43;;;20.30;1.00;;;;;;5034365;28;20183;-86
2022/08/21 08:28:23;;;;;;;6.17;2.13;;;20.60;1.00;;;;;;5052860;28;20671;-85
2022/08/21 08:30:49;;;;;;;6.63;1.90;;;20.80;1.00;;;;;;5048439;28;20276;-84
2022/08/21 08:33:16;;;;;;;9.10;2.20;;;21.20;1.00;;;;;;5033658;28;20640;-85
2022/08/21 08:35:48;;;;;;;8.00;2.10;;;21.30;1.00;;;;;;5050446;28;20180;-87
2022/08/21 08:38:18;;;;;;;8.50;2.30;;;21.30;1.00;;;;;;5053044;28;20198;-81
2022/08/21 08:41:00;;;;;;;7.37;2.07;;;20.90;1.00;;;;;;5053916;28;20189;-87
2022/08/21 08:43:28;;;;;;;7.57;1.97;;;20.90;1.00;;;;;;5054877;28;20690;-88
2022/08/21 08:45:58;;;;;;;7.20;2.43;;;20.70;1.00;;;;;;5051902;28;20179;-88
2022/08/21 08:48:51;;;;;;;10.57;2.17;;;20.50;1.00;;;;;;5053748;28;20180;-88
2022/08/21 08:51:55;;;;;;;6.90;2.60;;;20.60;1.00;;;;;;5043810;28;20187;-84
2022/08/21 08:54:45;;;;;;;6.33;2.30;;;20.60;1.00;;;;;;5000382;28;20222;-85
2022/08/21 08:57:17;;;;;;;10.13;2.50;;;20.60;1.00;;;;;;5051216;28;20554;-83
2022/08/21 08:59:47;;;;;;;7.43;2.10;;;20.60;1.00;;;;;;5034973;28;20272;-82
2022/08/21 09:02:15;;;;;;;7.13;2.03;;;20.60;1.00;;;;;;5051204;28;20180;-83
2022/08/21 09:04:42;;;;;;;10.53;2.10;;;21.00;1.00;;;;;;5051471;28;20666;-82
2022/08/21 09:07:15;;;;;;;6.67;1.80;;;21.10;1.00;;;;;;5032775;28;20272;-83
2022/08/21 09:09:55;;;;;;;6.03;1.77;;;21.30;1.00;;;;;;5032572;28;20596;-82
2022/08/21 09:13:03;;;;;;;9.60;2.60;;;21.30;1.00;;;;;;5049294;28;20226;-82
2022/08/21 09:15:46;;;;;;;13.30;2.23;;;21.50;1.00;;;;;;5049804;28;20195;-86
2022/08/21 09:18:14;;;;;;;8.83;2.17;;;21.70;1.00;;;;;;5050405;28;20241;-83
2022/08/21 09:21:02;;;;;;;11.17;2.33;;;21.60;1.00;;;;;;5050751;28;20201;-82
2022/08/21 09:23:41;;;;;;;9.40;3.07;;;21.70;1.00;;;;;;5034053;28;20189;-88
2022/08/21 09:26:23;;;;;;;6.13;1.97;;;22.10;1.00;;;;;;5051157;28;20186;-85
2022/08/21 09:28:57;;;;;;;7.73;2.40;;;22.40;1.00;;;;;;5048624;28;20190;-81
2022/08/21 09:31:28;;;;;;;8.33;2.50;;;22.50;99.90;;;;;;5051240;28;20333;-86
2022/08/21 09:34:09;;;;;;;11.47;2.73;;;22.30;99.90;;;;;;5034721;28;20222;-82
2022/08/21 09:36:40;;;;;;;9.20;2.37;;;22.60;99.90;;;;;;5050089;28;20224;-84
2022/08/21 09:39:08;;;;;;;10.03;2.80;;;22.50;99.90;;;;;;5049989;28;20245;-86
2022/08/21 09:41:39;;;;;;;8.27;2.40;;;22.70;99.90;;;;;;5051332;28;20199;-88
2022/08/21 09:44:08;;;;;;;9.27;2.23;;;22.90;99.90;;;;;;5050649;28;20188;-85
2022/08/21 09:46:35;;;;;;;6.47;2.33;;;23.10;99.90;;;;;;5040450;28;22142;-83
2022/08/21 09:49:03;;;;;;;8.90;2.30;;;23.40;99.90;;;;;;5051520;28;20667;-85
2022/08/21 09:51:34;;;;;;;6.93;1.97;;;23.30;99.90;;;;;;5051911;28;20180;-83
2022/08/21 09:54:06;;;;;;;6.77;1.90;;;22.80;99.90;;;;;;5050978;28;20959;-85
2022/08/21 09:59:42;;;;;;;7.20;2.10;;;22.30;99.90;;;;;;5050811;28;20548;-80
2022/08/21 10:02:30;;;;;;;6.93;2.30;;;22.00;99.90;;;;;;5050546;28;20542;-83
2022/08/21 10:05:01;;;;;;;6.20;2.03;;;22.00;99.90;;;;;;5049714;28;20710;-81
2022/08/21 10:07:31;;;;;;;7.47;1.80;;;22.00;99.90;;;;;;5049656;28;20165;-82
2022/08/21 10:10:12;;;;;;;7.60;2.10;;;22.00;99.90;;;;;;5047580;28;20177;-84
2022/08/21 10:13:02;;;;;;;7.80;2.13;;;21.90;1.00;;;;;;5060656;28;20172;-83
2022/08/21 10:15:43;;;;;;;8.80;2.07;;;22.10;99.90;;;;;;5051693;28;20250;-81
2022/08/21 10:18:09;;;;;;;7.90;2.53;;;22.50;99.90;;;;;;5049329;28;20192;-81
2022/08/21 10:21:10;;;;;;;10.77;2.70;;;22.80;99.90;;;;;;5031501;28;20245;-81
2022/08/21 10:23:35;;;;;;;10.17;2.10;;;23.00;99.90;;;;;;5012637;28;20661;-81
2022/08/21 10:26:16;;;;;;;8.30;2.30;;;23.30;99.90;;;;;;5049255;28;20183;-80
2022/08/21 10:29:07;;;;;;;9.80;2.20;;;23.40;33.30;;;;;;5050302;28;20194;-83
2022/08/21 10:31:43;;;;;;;7.83;2.13;;;23.30;38.80;;;;;;5054005;28;20218;-81
2022/08/21 10:34:38;;;;;;;8.13;2.33;;;23.40;99.90;;;;;;5055962;28;20231;-83
2022/08/21 10:37:38;;;;;;;8.90;2.40;;;23.70;53.40;;;;;;5048903;28;20707;-80
2022/08/21 10:40:26;;;;;;;8.33;2.30;;;23.90;3.80;;;;;;5048586;28;20188;-82
2022/08/21 10:43:17;;;;;;;6.10;1.90;;;24.00;1.00;;;;;;5047373;28;20191;-82
2022/08/21 10:45:49;;;;;;;6.03;2.03;;;24.20;1.00;;;;;;5050282;28;20249;-83
2022/08/21 10:48:35;;;;;;;7.70;2.07;;;24.10;1.00;;;;;;5048681;28;20227;-83
2022/08/21 10:51:12;;;;;;;10.67;2.20;;;23.50;1.00;;;;;;5046986;28;20644;-81
2022/08/21 10:53:46;;;;;;;9.30;1.80;;;23.30;49.20;;;;;;5051126;28;20242;-83
2022/08/21 10:56:17;;;;;;;13.50;5.00;;;23.50;99.90;;;;;;5051434;28;20188;-84
2022/08/21 10:58:59;;;;;;;8.87;2.40;;;23.90;17.40;;;;;;5047021;28;20522;-84
2022/08/21 11:01:31;;;;;;;5.93;2.30;;;23.80;1.00;;;;;;5048848;28;20199;-85
2022/08/21 11:04:28;;;;;;;5.50;2.10;;;24.00;1.00;;;;;;5044420;28;20240;-87
2022/08/21 11:07:03;;;;;;;9.43;2.40;;;23.90;1.00;;;;;;5049216;28;20172;-89
2022/08/21 11:09:30;;;;;;;7.57;2.30;;;23.80;1.00;;;;;;5031802;28;20194;-82
2022/08/21 11:12:05;;;;;;;8.37;2.40;;;23.50;1.00;;;;;;5049250;28;20181;-85
2022/08/21 11:14:39;;;;;;;15.17;4.83;;;23.50;36.40;;;;;;5031593;28;20246;-84
2022/08/21 11:17:13;;;;;;;7.00;2.10;;;23.60;1.00;;;;;;5049225;28;20195;-83
2022/08/21 11:20:08;;;;;;;8.33;2.00;;;23.70;1.00;;;;;;5048727;28;20183;-84
2022/08/21 11:23:05;;;;;;;9.13;2.40;;;23.40;1.00;;;;;;5048825;28;20203;-85
2022/08/21 11:25:36;;;;;;;8.33;2.37;;;23.20;17.70;;;;;;5048323;28;20180;-85
2022/08/21 11:28:11;;;;;;;9.07;2.43;;;23.30;1.00;;;;;;5030644;28;20215;-85
2022/08/21 11:30:58;;;;;;;13.13;7.60;;;23.10;1.00;;;;;;5049915;28;20186;-84
2022/08/21 11:33:58;;;;;;;11.73;7.13;;;23.40;39.30;;;;;;5048946;28;20219;-86
2022/08/21 11:36:58;;;;;;;13.83;2.80;;;23.80;1.00;;;;;;5052253;28;20192;-88
2022/08/21 11:39:24;;;;;;;7.93;2.60;;;24.00;1.00;;;;;;5039112;28;20561;-87
2022/08/21 11:42:12;;;;;;;6.30;2.37;;;24.00;1.00;;;;;;5039504;28;20276;-89
2022/08/21 11:44:50;;;;;;;6.80;1.97;;;24.20;1.00;;;;;;5042466;28;20279;-84
2022/08/21 11:47:32;;;;;;;7.93;2.40;;;24.10;1.00;;;;;;5056785;28;20177;-84
2022/08/21 11:50:18;;;;;;;7.73;2.10;;;24.00;99.90;;;;;;5051108;28;20717;-83
2022/08/21 11:52:56;;;;;;;10.27;2.87;;;23.70;1.00;;;;;;5054714;28;20184;-88
2022/08/21 11:55:56;;;;;;;10.53;2.47;;;23.90;1.00;;;;;;5053518;28;20707;-83
2022/08/21 11:58:36;;;;;;;7.50;2.07;;;24.40;1.00;;;;;;5027468;28;20188;-83
2022/08/21 12:01:21;;;;;;;6.90;2.30;;;24.80;99.90;;;;;;5054401;28;20545;-84
2022/08/21 12:04:18;;;;;;;6.87;2.10;;;24.60;1.00;;;;;;5053896;28;20347;-85
2022/08/21 12:06:49;;;;;;;8.50;2.50;;;24.50;99.90;;;;;;5054526;28;20189;-82
2022/08/21 12:09:24;;;;;;;6.93;2.50;;;24.20;61.90;;;;;;5034785;28;20188;-82
2022/08/21 12:12:05;;;;;;;8.77;2.13;;;24.00;99.90;;;;;;5050858;28;20187;-84
2022/08/21 12:15:05;;;;;;;7.50;1.97;;;24.10;99.90;;;;;;5050976;28;20209;-83
2022/08/21 12:17:37;;;;;;;9.00;2.50;;;24.10;99.90;;;;;;5049713;28;20181;-82
2022/08/21 12:20:26;;;;;;;7.07;2.10;;;24.20;1.00;;;;;;5053972;28;20636;-87
2022/08/21 12:23:10;;;;;;;7.57;2.20;;;24.40;99.90;;;;;;5042227;28;20211;-86
2022/08/21 12:26:03;;;;;;;8.33;2.43;;;24.50;99.90;;;;;;5037853;28;20227;-85
2022/08/21 12:28:31;;;;;;;6.13;2.10;;;24.80;99.90;;;;;;5049372;28;20234;-79
2022/08/21 12:31:03;;;;;;;7.67;1.70;;;25.10;1.00;;;;;;5050119;28;20181;-81
2022/08/21 12:33:40;;;;;;;9.00;2.07;;;25.00;1.00;;;;;;5051392;28;20224;-80
2022/08/21 12:36:21;;;;;;;8.03;2.20;;;25.10;99.90;;;;;;5051437;28;20189;-81
2022/08/21 12:39:08;;;;;;;8.13;2.20;;;25.20;1.00;;;;;;5051787;28;20540;-80
2022/08/21 12:41:51;;;;;;;7.83;2.03;;;24.80;1.00;;;;;;5054729;28;20212;-80
2022/08/21 12:44:43;;;;;;;7.37;2.47;;;24.40;1.00;;;;;;5062252;28;20181;-83
2022/08/21 12:47:30;;;;;;;7.33;1.97;;;24.20;99.90;;;;;;5040565;28;20199;-84
2022/08/21 12:50:14;;;;;;;8.30;2.30;;;24.50;1.00;;;;;;5050334;28;20181;-82
2022/08/21 12:52:48;;;;;;;8.07;2.47;;;24.60;1.00;;;;;;5050573;28;20664;-82
2022/08/21 12:55:16;;;;;;;6.53;2.00;;;24.70;1.00;;;;;;5050883;28;20181;-81
2022/08/21 12:57:42;;;;;;;8.17;2.17;;;24.60;1.00;;;;;;5054679;28;20208;-83
2022/08/21 13:00:12;;;;;;;6.07;1.70;;;24.20;99.90;;;;;;5067506;28;20196;-81
2022/08/21 13:02:48;;;;;;;9.87;3.13;;;24.10;99.90;;;;;;5067898;28;20254;-81
2022/08/21 13:05:23;;;;;;;6.83;2.60;;;24.00;32.40;;;;;;5034062;28;20632;-83
2022/08/21 13:07:49;;;;;;;9.47;2.63;;;23.80;1.00;;;;;;5049176;28;20236;-82
2022/08/21 13:10:23;;;;;;;6.03;2.50;;;23.70;99.90;;;;;;5052516;28;20195;-82
2022/08/21 13:13:02;;;;;;;5.93;2.10;;;24.00;99.90;;;;;;5051878;28;20633;-82
2022/08/21 13:15:40;;;;;;;7.60;2.00;;;24.10;99.90;;;;;;5053160;28;20184;-82
2022/08/21 13:18:06;;;;;;;7.23;2.60;;;24.20;1.00;;;;;;5051000;28;20234;-81
2022/08/21 13:20:41;;;;;;;6.87;1.87;;;24.40;1.00;;;;;;5061075;28;20192;-78
2022/08/21 13:23:28;;;;;;;12.23;2.63;;;24.20;99.90;;;;;;5063687;28;20284;-82
2022/08/21 13:26:27;;;;;;;;;;;;;;;;;;;;;